createdAt,value
2023-06-02T00:02:01.182Z,71.60
2023-06-02T00:04:28.762Z,71.60
2023-06-02T00:07:04.497Z,71.80
2023-06-02T00:09:37.424Z,71.90
2023-06-02T00:12:04.524Z,72.00
2023-06-02T00:14:35.172Z,71.90
2023-06-02T00:17:02.343Z,72.20
2023-06-02T00:19:32.062Z,72.30
2023-06-02T00:21:59.289Z,72.60
2023-06-02T00:24:26.201Z,73.20
2023-06-02T00:26:53.063Z,72.60
2023-06-02T00:29:20.138Z,72.80
2023-06-02T00:31:47.020Z,72.90
2023-06-02T00:34:13.843Z,73.10
2023-06-02T00:36:40.721Z,73.50
2023-06-02T00:39:08.154Z,73.20
2023-06-02T00:41:35.510Z,73.50
2023-06-02T00:44:02.594Z,73.70
2023-06-02T00:46:29.501Z,73.90
2023-06-02T00:48:56.405Z,74.10
2023-06-02T00:51:24.289Z,74.40
2023-06-02T00:53:51.647Z,74.60
2023-06-02T00:56:18.633Z,74.70
2023-06-02T00:58:46.545Z,74.80
2023-06-02T01:01:13.732Z,74.90
2023-06-02T01:03:46.250Z,75.10
2023-06-02T01:06:16.586Z,76.40
2023-06-02T01:08:44.596Z,76.40
2023-06-02T01:11:11.908Z,75.60
2023-06-02T01:13:38.915Z,76.20
2023-06-02T01:16:06.699Z,75.40
2023-06-02T01:18:36.564Z,75.70
2023-06-02T01:21:06.811Z,75.90
2023-06-02T01:23:36.889Z,76.00
2023-06-02T01:26:10.565Z,76.10
2023-06-02T01:28:37.871Z,76.00
2023-06-02T01:31:19.019Z,75.80
2023-06-02T01:34:07.618Z,77.20
2023-06-02T01:36:37.410Z,76.10
2023-06-02T01:39:06.578Z,76.20
2023-06-02T01:41:35.841Z,76.40
2023-06-02T01:44:03.723Z,76.70
2023-06-02T01:46:30.736Z,76.60
2023-06-02T01:48:57.742Z,76.80
2023-06-02T01:51:24.530Z,76.90
2023-06-02T01:53:51.525Z,76.90
2023-06-02T01:56:18.282Z,77.00
2023-06-02T01:58:47.785Z,77.00
2023-06-02T02:01:14.722Z,77.20
2023-06-02T02:03:41.625Z,77.40
2023-06-02T02:06:11.616Z,77.60
2023-06-02T02:08:38.474Z,77.60
2023-06-02T02:11:05.372Z,77.80
2023-06-02T02:13:34.345Z,77.90
2023-06-02T02:16:04.551Z,78.20
2023-06-02T02:18:31.697Z,78.80
2023-06-02T02:20:58.664Z,78.20
2023-06-02T02:23:25.713Z,78.10
2023-06-02T02:25:52.608Z,78.10
2023-06-02T02:28:19.407Z,78.20
2023-06-02T02:30:46.259Z,79.40
2023-06-02T02:33:13.808Z,78.30
2023-06-02T02:35:41.448Z,78.60
2023-06-02T02:38:08.434Z,79.50
2023-06-02T02:40:35.286Z,78.90
2023-06-02T02:43:03.169Z,79.10
2023-06-02T02:45:30.132Z,79.60
2023-06-02T02:47:58.296Z,79.60
2023-06-02T02:50:25.126Z,79.60
2023-06-02T02:52:52.195Z,79.60
2023-06-02T02:55:19.051Z,79.70
2023-06-02T02:57:46.115Z,79.60
2023-06-02T03:00:14.396Z,79.80
2023-06-02T03:02:41.717Z,80.10
2023-06-02T03:05:09.727Z,80.00
2023-06-02T03:07:36.633Z,79.90
2023-06-02T03:10:03.709Z,80.00
2023-06-02T03:12:30.493Z,80.20
2023-06-02T03:14:58.454Z,80.30
2023-06-02T03:17:25.564Z,80.60
2023-06-02T03:19:52.500Z,81.40
2023-06-02T03:22:19.355Z,80.30
2023-06-02T03:24:46.233Z,80.50
2023-06-02T03:27:14.690Z,81.70
2023-06-02T03:29:41.938Z,80.80
2023-06-02T03:32:12.710Z,81.80
2023-06-02T03:34:40.985Z,81.20
2023-06-02T03:37:08.421Z,81.20
2023-06-02T03:39:35.161Z,81.00
2023-06-02T03:42:01.953Z,81.00
2023-06-02T03:44:28.921Z,81.30
2023-06-02T03:46:56.016Z,81.30
2023-06-02T03:49:28.149Z,81.40
2023-06-02T03:51:56.296Z,81.20
2023-06-02T03:54:26.380Z,81.20
2023-06-02T03:56:53.223Z,81.10
2023-06-02T03:59:20.231Z,82.20
2023-06-02T04:01:47.015Z,82.30
2023-06-02T04:04:14.055Z,81.10
2023-06-02T04:06:44.066Z,80.90
2023-06-02T04:09:14.467Z,80.60
2023-06-02T04:11:42.017Z,80.40
2023-06-02T04:14:09.134Z,81.40
2023-06-02T04:16:36.060Z,81.20
2023-06-02T04:19:07.234Z,80.30
2023-06-02T04:21:34.288Z,80.20
2023-06-02T04:24:04.072Z,79.90
2023-06-02T04:26:31.638Z,79.70
2023-06-02T04:28:58.423Z,79.50
2023-06-02T04:31:46.675Z,79.60
2023-06-02T04:34:17.418Z,79.60
2023-06-02T04:36:47.248Z,79.70
2023-06-02T04:39:14.182Z,79.80
2023-06-02T04:41:45.257Z,79.80
2023-06-02T04:44:12.692Z,79.60
2023-06-02T04:46:39.827Z,79.40
2023-06-02T04:49:10.681Z,79.30
2023-06-02T04:51:40.920Z,79.20
2023-06-02T04:54:07.862Z,79.00
2023-06-02T04:56:36.731Z,79.10
2023-06-02T04:59:05.066Z,79.20
2023-06-02T05:01:32.064Z,79.20
2023-06-02T05:03:59.188Z,79.20
2023-06-02T05:06:26.376Z,79.20
2023-06-02T05:08:53.324Z,79.20
2023-06-02T05:11:27.208Z,79.10
2023-06-02T05:13:56.552Z,79.10
2023-06-02T05:16:24.989Z,78.80
2023-06-02T05:18:52.458Z,78.60
2023-06-02T05:21:19.396Z,78.40
2023-06-02T05:23:46.513Z,78.00
2023-06-02T05:26:14.042Z,77.40
2023-06-02T05:28:41.817Z,76.90
2023-06-02T05:31:10.425Z,76.40
2023-06-02T05:33:37.903Z,76.00
2023-06-02T05:36:05.392Z,76.00
2023-06-02T05:38:32.607Z,76.00
2023-06-02T05:40:59.555Z,76.00
2023-06-02T05:43:26.770Z,75.80
2023-06-02T05:45:53.897Z,75.50
2023-06-02T05:48:21.040Z,75.20
2023-06-02T05:50:48.187Z,74.40
2023-06-02T05:53:18.074Z,74.30
2023-06-02T05:55:45.292Z,74.20
2023-06-02T05:58:12.254Z,74.10
2023-06-02T06:00:43.514Z,74.00
2023-06-02T06:03:10.939Z,73.70
2023-06-02T06:05:37.986Z,73.50
2023-06-02T06:08:05.037Z,73.60
2023-06-02T06:10:32.225Z,73.30
2023-06-02T06:13:00.188Z,73.10
2023-06-02T06:15:30.893Z,73.00
2023-06-02T06:17:57.966Z,72.80
2023-06-02T06:20:24.880Z,73.30
2023-06-02T06:22:52.861Z,72.10
2023-06-02T06:25:19.967Z,71.20
2023-06-02T06:27:49.759Z,70.50
2023-06-02T06:30:16.664Z,70.50
2023-06-02T06:32:43.931Z,70.80
2023-06-02T06:35:10.977Z,70.70
2023-06-02T06:37:37.965Z,70.40
2023-06-02T06:40:05.292Z,70.00
2023-06-02T06:42:32.478Z,69.90
2023-06-02T06:44:59.437Z,69.40
2023-06-02T06:47:26.612Z,68.70
2023-06-02T06:49:57.441Z,68.10
2023-06-02T06:52:24.453Z,67.90
2023-06-02T06:54:51.500Z,68.10
2023-06-02T06:57:19.651Z,67.80
2023-06-02T06:59:49.700Z,67.50
2023-06-02T07:02:17.082Z,67.30
2023-06-02T07:04:44.576Z,67.10
2023-06-02T07:07:14.084Z,66.80
2023-06-02T07:09:42.458Z,66.60
2023-06-02T07:12:09.678Z,66.50
2023-06-02T07:14:37.663Z,66.40
2023-06-02T07:17:04.997Z,65.10
2023-06-02T07:19:36.081Z,65.20
2023-06-02T07:22:07.282Z,64.90
2023-06-02T07:24:38.120Z,65.00
2023-06-02T07:27:05.225Z,64.60
2023-06-02T07:29:33.195Z,64.20
2023-06-02T07:32:03.073Z,64.10
2023-06-02T07:34:30.933Z,63.70
2023-06-02T07:37:03.647Z,63.30
2023-06-02T07:39:31.350Z,64.00
2023-06-02T07:41:58.415Z,62.90
2023-06-02T07:44:29.464Z,62.00
2023-06-02T07:46:57.337Z,62.40
2023-06-02T07:49:27.635Z,62.90
2023-06-02T07:51:54.690Z,62.80
2023-06-02T07:54:21.834Z,62.70
2023-06-02T07:56:52.086Z,62.50
2023-06-02T07:59:20.019Z,62.20
2023-06-02T08:01:47.466Z,61.10
2023-06-02T08:04:14.616Z,61.40
2023-06-02T08:06:43.260Z,61.80
2023-06-02T08:09:10.880Z,61.70
2023-06-02T08:11:37.962Z,61.10
2023-06-02T08:14:09.013Z,60.80
2023-06-02T08:16:45.148Z,60.00
2023-06-02T08:19:26.598Z,60.30
2023-06-02T08:21:54.854Z,60.10
2023-06-02T08:24:26.243Z,59.60
2023-06-02T08:26:56.860Z,59.50
2023-06-02T08:29:28.269Z,60.00
2023-06-02T08:31:58.480Z,58.90
2023-06-02T08:34:25.607Z,58.90
2023-06-02T08:37:02.159Z,58.90
2023-06-02T08:39:30.690Z,58.80
2023-06-02T08:41:57.990Z,58.80
2023-06-02T08:44:26.274Z,58.80
2023-06-02T08:46:57.194Z,58.90
2023-06-02T08:49:26.859Z,58.50
2023-06-02T08:52:02.218Z,58.30
2023-06-02T08:54:33.805Z,58.10
2023-06-02T08:57:06.324Z,57.60
2023-06-02T08:59:37.902Z,57.30
2023-06-02T09:02:05.861Z,57.30
2023-06-02T09:04:36.316Z,57.10
2023-06-02T09:07:16.816Z,56.80
2023-06-02T09:09:49.954Z,56.80
2023-06-02T09:12:19.087Z,57.10
2023-06-02T09:14:48.223Z,56.20
2023-06-02T09:17:29.845Z,56.50
2023-06-02T09:19:59.505Z,55.30
2023-06-02T09:22:26.832Z,56.10
2023-06-02T09:24:55.285Z,56.00
2023-06-02T09:27:22.558Z,56.20
2023-06-02T09:29:50.765Z,55.80
2023-06-02T09:32:20.051Z,55.70
2023-06-02T09:34:47.227Z,55.20
2023-06-02T09:37:20.492Z,55.20
2023-06-02T09:39:53.489Z,54.80
2023-06-02T09:42:23.011Z,54.90
2023-06-02T09:45:04.043Z,54.50
2023-06-02T09:47:38.305Z,54.10
2023-06-02T09:50:06.500Z,54.30
2023-06-02T09:52:35.347Z,54.20
2023-06-02T09:55:03.044Z,54.40
2023-06-02T09:57:31.988Z,54.30
2023-06-02T10:00:04.774Z,54.30
2023-06-02T10:02:31.761Z,53.90
2023-06-02T10:05:00.670Z,54.40
2023-06-02T10:08:04.183Z,54.50
2023-06-02T10:10:39.876Z,53.90
2023-06-02T10:13:33.363Z,53.30
2023-06-02T10:16:37.623Z,53.30
2023-06-02T10:19:13.886Z,53.50
2023-06-02T10:22:18.565Z,53.60
2023-06-02T10:25:06.286Z,52.80
2023-06-02T10:27:37.132Z,52.00
2023-06-02T10:30:04.923Z,50.30
2023-06-02T10:32:52.455Z,50.40
2023-06-02T10:35:20.353Z,51.30
2023-06-02T10:37:49.655Z,51.80
2023-06-02T10:40:16.957Z,52.10
2023-06-02T10:43:15.156Z,51.70
2023-06-02T10:45:46.473Z,51.40
2023-06-02T10:48:43.193Z,51.00
2023-06-02T10:51:11.921Z,51.10
2023-06-02T10:54:03.350Z,51.20
2023-06-02T10:56:36.721Z,51.30
2023-06-02T10:59:04.488Z,51.40
2023-06-02T11:01:52.492Z,51.40
2023-06-02T11:04:26.971Z,51.00
2023-06-02T11:07:27.350Z,50.80
2023-06-02T11:09:59.477Z,50.50
2023-06-02T11:12:51.319Z,51.00
2023-06-02T11:15:21.848Z,50.60
2023-06-02T11:17:49.669Z,51.30
2023-06-02T11:20:18.794Z,50.40
2023-06-02T11:22:48.208Z,50.30
2023-06-02T11:25:19.838Z,50.00
2023-06-02T11:27:48.857Z,50.30
2023-06-02T11:30:20.273Z,50.70
2023-06-02T11:32:50.430Z,50.40
2023-06-02T11:35:21.508Z,50.00
2023-06-02T11:38:06.004Z,49.80
2023-06-02T11:40:35.225Z,50.20
2023-06-02T11:43:02.362Z,50.50
2023-06-02T11:45:30.237Z,50.40
2023-06-02T11:48:06.727Z,50.10
2023-06-02T11:50:34.104Z,49.50
2023-06-02T11:53:01.450Z,49.30
2023-06-02T11:55:33.575Z,49.80
2023-06-02T11:58:21.032Z,49.70
2023-06-02T12:00:48.765Z,49.10
2023-06-02T12:03:15.972Z,49.10
2023-06-02T12:05:45.484Z,49.30
2023-06-02T12:08:16.667Z,49.50
2023-06-02T12:10:46.755Z,49.00
2023-06-02T12:13:31.733Z,48.70
2023-06-02T12:16:19.551Z,49.50
2023-06-02T12:18:50.656Z,49.00
2023-06-02T12:21:27.878Z,48.60
2023-06-02T12:24:00.710Z,48.30
2023-06-02T12:26:47.208Z,48.40
2023-06-02T12:29:15.195Z,48.00
2023-06-02T12:31:43.241Z,47.00
2023-06-02T12:34:12.244Z,47.00
2023-06-02T12:36:43.812Z,47.70
2023-06-02T12:39:14.437Z,47.10
2023-06-02T12:41:46.357Z,47.90
2023-06-02T12:44:17.973Z,48.20
2023-06-02T12:46:45.375Z,47.80
2023-06-02T12:49:17.455Z,48.00
2023-06-02T12:51:48.408Z,48.20
2023-06-02T12:54:15.736Z,48.50
2023-06-02T12:56:48.876Z,48.60
2023-06-02T12:59:19.292Z,47.70
2023-06-02T13:01:51.232Z,48.20
2023-06-02T13:04:22.561Z,47.70
2023-06-02T13:06:52.500Z,47.70
2023-06-02T13:09:19.344Z,46.90
2023-06-02T13:11:51.410Z,46.40
2023-06-02T13:14:24.558Z,47.00
2023-06-02T13:16:58.706Z,46.30
2023-06-02T13:19:29.812Z,45.90
2023-06-02T13:21:57.113Z,45.70
2023-06-02T13:24:24.329Z,45.70
2023-06-02T13:26:51.717Z,45.70
2023-06-02T13:29:18.568Z,45.80
2023-06-02T13:31:45.533Z,45.70
2023-06-02T13:34:12.818Z,46.10
2023-06-02T13:36:40.741Z,46.20
2023-06-02T13:39:10.200Z,46.00
2023-06-02T13:41:41.294Z,46.30
2023-06-02T13:44:22.366Z,46.90
2023-06-02T13:46:56.268Z,46.50
2023-06-02T13:49:27.614Z,46.20
2023-06-02T13:51:58.223Z,45.80
2023-06-02T13:54:25.111Z,46.00
2023-06-02T13:56:55.982Z,46.20
2023-06-02T13:59:22.901Z,46.90
2023-06-02T14:01:54.545Z,46.90
2023-06-02T14:04:23.202Z,47.40
2023-06-02T14:06:50.936Z,48.60
2023-06-02T14:09:23.277Z,49.70
2023-06-02T14:11:51.133Z,50.10
2023-06-02T14:14:18.195Z,50.20
2023-06-02T14:16:49.932Z,50.80
2023-06-02T14:19:22.932Z,51.10
2023-06-02T14:21:49.864Z,50.90
2023-06-02T14:24:24.007Z,50.60
2023-06-02T14:26:57.760Z,50.60
2023-06-02T14:29:31.903Z,50.50
2023-06-02T14:32:03.479Z,49.70
2023-06-02T14:34:37.554Z,50.20
2023-06-02T14:37:09.431Z,50.80
2023-06-02T14:39:46.066Z,51.20
2023-06-02T14:42:13.155Z,51.60
2023-06-02T14:44:41.214Z,51.70
2023-06-02T14:47:11.699Z,52.30
2023-06-02T14:49:39.694Z,52.10
2023-06-02T14:52:09.293Z,51.90
2023-06-02T14:54:37.233Z,52.40
2023-06-02T14:57:08.146Z,53.00
2023-06-02T14:59:39.195Z,53.00
2023-06-02T15:02:06.640Z,53.30
2023-06-02T15:04:34.647Z,52.70
2023-06-02T15:07:02.455Z,53.20
2023-06-02T15:09:33.307Z,52.70
2023-06-02T15:12:00.162Z,52.90
2023-06-02T15:14:30.309Z,52.90
2023-06-02T15:16:57.221Z,52.60
2023-06-02T15:19:28.756Z,53.10
2023-06-02T15:22:02.149Z,53.30
2023-06-02T15:24:30.441Z,53.40
2023-06-02T15:26:58.262Z,53.00
2023-06-02T15:29:25.106Z,53.00
2023-06-02T15:31:53.441Z,53.00
2023-06-02T15:34:25.892Z,53.40
2023-06-02T15:36:53.868Z,53.80
2023-06-02T15:39:26.976Z,54.10
2023-06-02T15:41:58.488Z,54.30
2023-06-02T15:44:33.354Z,54.00
2023-06-02T15:47:00.730Z,54.40
2023-06-02T15:49:32.361Z,54.10
2023-06-02T15:52:03.520Z,53.90
2023-06-02T15:54:35.507Z,54.00
2023-06-02T15:57:09.280Z,53.80
2023-06-02T15:59:46.131Z,53.80
2023-06-02T16:02:16.469Z,53.80
2023-06-02T16:04:47.133Z,53.40
2023-06-02T16:07:14.048Z,53.60
2023-06-02T16:09:46.214Z,53.80
2023-06-02T16:12:15.651Z,54.10
2023-06-02T16:14:42.512Z,54.20
2023-06-02T16:17:13.756Z,53.90
2023-06-02T16:19:47.044Z,53.80
2023-06-02T16:22:20.418Z,53.80
2023-06-02T16:24:51.133Z,53.80
2023-06-02T16:27:18.091Z,53.60
2023-06-02T16:29:51.742Z,53.60
2023-06-02T16:32:22.694Z,54.30
2023-06-02T16:34:49.705Z,53.90
2023-06-02T16:37:21.235Z,53.70
2023-06-02T16:39:48.179Z,54.30
2023-06-02T16:42:18.361Z,53.80
2023-06-02T16:44:54.322Z,53.20
2023-06-02T16:47:28.574Z,52.90
2023-06-02T16:50:02.124Z,52.80
2023-06-02T16:52:30.118Z,52.30
2023-06-02T16:55:04.704Z,52.30
2023-06-02T16:57:35.467Z,52.40
2023-06-02T17:00:09.184Z,52.10
2023-06-02T17:02:39.471Z,52.30
2023-06-02T17:05:10.420Z,52.60
2023-06-02T17:07:41.492Z,52.50
2023-06-02T17:10:14.865Z,52.10
2023-06-02T17:12:41.843Z,52.20
2023-06-02T17:15:12.014Z,52.60
2023-06-02T17:17:39.289Z,51.90
2023-06-02T17:20:13.836Z,50.40
2023-06-02T17:22:40.990Z,48.80
2023-06-02T17:25:08.401Z,48.80
2023-06-02T17:27:37.023Z,47.00
2023-06-02T17:30:07.708Z,47.20
2023-06-02T17:32:34.764Z,45.50
2023-06-02T17:35:02.039Z,44.90
2023-06-02T17:37:34.035Z,44.80
2023-06-02T17:40:04.466Z,44.00
2023-06-02T17:42:32.619Z,42.30
2023-06-02T17:45:00.319Z,42.70
2023-06-02T17:47:27.360Z,42.50
2023-06-02T17:49:57.587Z,41.60
2023-06-02T17:52:25.307Z,41.40
2023-06-02T17:54:52.948Z,41.30
2023-06-02T17:57:21.151Z,41.00
2023-06-02T17:59:51.392Z,40.60
2023-06-02T18:02:19.031Z,40.90
2023-06-02T18:04:53.411Z,40.80
2023-06-02T18:07:23.370Z,40.00
2023-06-02T18:09:54.208Z,39.00
2023-06-02T18:12:21.305Z,38.80
2023-06-02T18:14:48.425Z,39.40
2023-06-02T18:34:29.158Z,36.80
2023-06-02T18:36:56.043Z,36.80
2023-06-02T18:39:23.633Z,36.70
2023-06-02T18:41:50.807Z,37.60
2023-06-02T18:44:18.005Z,39.00
2023-06-02T18:46:45.214Z,40.40
2023-06-02T18:49:12.278Z,41.60
2023-06-02T18:51:39.488Z,42.70
2023-06-02T18:54:09.294Z,43.50
2023-06-02T18:56:36.869Z,44.00
2023-06-02T18:59:03.735Z,44.70
2023-06-02T19:01:31.725Z,45.40
2023-06-02T19:03:59.296Z,46.10
2023-06-02T19:06:26.478Z,46.70
2023-06-02T19:08:53.429Z,47.30
2023-06-02T19:11:20.599Z,47.70
2023-06-02T19:13:49.214Z,48.00
2023-06-02T19:16:17.193Z,48.50
2023-06-02T19:18:45.794Z,49.00
2023-06-02T19:21:15.900Z,49.40
2023-06-02T19:23:43.166Z,49.90
2023-06-02T19:26:10.829Z,50.30
2023-06-02T19:28:37.966Z,50.70
2023-06-02T19:31:04.964Z,51.20
2023-06-02T19:33:31.984Z,51.50
2023-06-02T19:35:59.135Z,52.10
2023-06-02T19:38:26.192Z,52.60
2023-06-02T19:40:55.958Z,53.10
2023-06-02T19:43:22.950Z,53.60
2023-06-02T19:45:50.894Z,54.00
2023-06-02T19:48:18.824Z,54.30
2023-06-02T19:50:48.259Z,54.60
2023-06-02T19:53:15.593Z,54.80
2023-06-02T19:55:42.473Z,55.10
2023-06-02T19:58:09.510Z,55.50
2023-06-02T20:00:39.757Z,55.80
2023-06-02T20:03:07.243Z,56.10
2023-06-02T20:05:35.802Z,57.00
2023-06-02T20:08:03.439Z,56.80
2023-06-02T20:10:30.605Z,57.00
2023-06-02T20:12:57.721Z,57.40
2023-06-02T20:15:24.711Z,57.60
2023-06-02T20:17:51.863Z,57.90
2023-06-02T20:20:19.046Z,58.20
2023-06-02T20:22:47.035Z,58.50
2023-06-02T20:25:13.966Z,58.70
2023-06-02T20:27:41.239Z,58.80
2023-06-02T20:30:09.123Z,59.10
2023-06-02T20:32:37.200Z,59.50
2023-06-02T20:35:05.975Z,59.70
2023-06-02T20:37:38.537Z,59.90
2023-06-02T20:40:08.783Z,60.20
2023-06-02T20:42:36.075Z,60.40
2023-06-02T20:45:03.681Z,60.70
2023-06-02T20:47:31.124Z,61.10
2023-06-02T20:49:59.323Z,61.40
2023-06-02T20:52:26.227Z,61.70
2023-06-02T20:54:53.061Z,61.90
2023-06-02T20:57:20.153Z,62.10
2023-06-02T20:59:47.248Z,62.40
2023-06-02T21:02:14.424Z,62.70
2023-06-02T21:04:43.678Z,63.00
2023-06-02T21:07:10.731Z,63.20
2023-06-02T21:09:37.866Z,63.50
2023-06-02T21:12:05.231Z,63.70
2023-06-02T21:14:33.226Z,64.10
2023-06-02T21:17:00.641Z,64.40
2023-06-02T21:19:27.733Z,64.70
2023-06-02T21:21:54.780Z,65.00
2023-06-02T21:24:22.240Z,65.30
2023-06-02T21:26:50.549Z,65.50
2023-06-02T21:29:17.644Z,65.90
2023-06-02T21:31:44.805Z,66.10
2023-06-02T21:34:11.956Z,66.40
2023-06-02T21:36:38.903Z,66.60
2023-06-02T21:39:08.906Z,66.80
2023-06-02T21:41:38.352Z,67.10
2023-06-02T21:44:05.427Z,67.30
2023-06-02T21:46:32.380Z,67.60
2023-06-02T21:48:59.497Z,67.90
2023-06-02T21:51:28.025Z,67.90
2023-06-02T21:53:56.693Z,68.10
2023-06-02T21:56:26.491Z,68.20
2023-06-02T21:58:57.572Z,68.40
2023-06-02T22:01:24.730Z,68.80
2023-06-02T22:03:51.992Z,68.90
2023-06-02T22:06:19.089Z,69.20
2023-06-02T22:08:46.402Z,69.50
2023-06-02T22:11:13.569Z,69.70
2023-06-02T22:13:40.519Z,69.80
2023-06-02T22:16:08.076Z,70.00
2023-06-02T22:18:35.044Z,70.50
2023-06-02T22:21:02.211Z,70.70
2023-06-02T22:23:29.903Z,71.00
2023-06-02T22:25:56.820Z,71.20
2023-06-02T22:28:23.896Z,71.30
2023-06-02T22:30:51.166Z,71.50
2023-06-02T22:33:18.208Z,71.70
2023-06-02T22:35:45.423Z,71.80
2023-06-02T22:38:12.359Z,71.90
2023-06-02T22:40:39.630Z,72.10
2023-06-02T22:43:06.787Z,72.30
2023-06-02T22:45:33.814Z,72.50
2023-06-02T22:48:00.904Z,72.90
2023-06-02T22:50:27.913Z,73.10
2023-06-02T22:52:54.861Z,73.40
2023-06-02T22:55:22.664Z,73.50
2023-06-02T22:57:49.832Z,73.70
2023-06-02T23:00:16.953Z,73.60
2023-06-02T23:02:44.085Z,73.50
2023-06-02T23:05:11.409Z,73.90
2023-06-02T23:07:39.816Z,74.10
2023-06-02T23:10:07.562Z,74.10
2023-06-02T23:12:34.587Z,74.40
2023-06-02T23:15:01.451Z,74.60
2023-06-02T23:17:28.718Z,74.70
2023-06-02T23:19:55.641Z,75.10
2023-06-02T23:22:22.908Z,75.40
2023-06-02T23:24:52.321Z,75.60
2023-06-02T23:27:19.838Z,75.90
2023-06-02T23:29:46.972Z,75.90
2023-06-02T23:32:14.467Z,76.00
2023-06-02T23:34:41.862Z,76.20
2023-06-02T23:37:08.987Z,76.40
2023-06-02T23:39:36.439Z,76.60
2023-06-02T23:42:03.892Z,76.70
2023-06-02T23:44:31.119Z,76.90
2023-06-02T23:46:58.317Z,77.00
2023-06-02T23:49:25.404Z,77.10
2023-06-02T23:51:53.511Z,76.90
2023-06-02T23:54:20.625Z,77.00
2023-06-02T23:56:47.937Z,77.20
2023-06-02T23:59:15.058Z,77.40
